createdAt,value
2022-09-28T00:01:18.181Z,4.57
2022-09-28T00:06:24.489Z,4.43
2022-09-28T00:11:29.948Z,4.30
2022-09-28T00:16:40.645Z,4.27
2022-09-28T00:21:48.275Z,4.43
2022-09-28T00:26:52.350Z,4.93
2022-09-28T00:32:00.059Z,5.80
2022-09-28T00:37:05.709Z,4.47
2022-09-28T00:42:19.406Z,5.03
2022-09-28T00:47:52.212Z,4.20
2022-09-28T00:53:00.571Z,6.27
2022-09-28T00:58:08.795Z,4.73
2022-09-28T01:03:14.312Z,4.70
2022-09-28T01:08:38.685Z,4.70
2022-09-28T01:13:43.354Z,5.97
2022-09-28T01:19:10.743Z,5.77
2022-09-28T01:24:41.329Z,5.53
2022-09-28T01:29:48.355Z,5.67
2022-09-28T01:34:58.104Z,7.30
2022-09-28T01:40:06.861Z,8.00
2022-09-28T01:45:34.044Z,9.47
2022-09-28T01:50:39.733Z,9.10
2022-09-28T01:55:48.738Z,7.90
2022-09-28T02:00:59.459Z,6.80
2022-09-28T02:06:06.661Z,6.10
2022-09-28T02:11:20.629Z,7.40
2022-09-28T02:16:33.611Z,6.67
2022-09-28T02:22:08.836Z,7.30
2022-09-28T02:27:14.948Z,6.73
2022-09-28T02:32:21.771Z,6.17
2022-09-28T02:37:23.590Z,7.07
2022-09-28T02:42:56.285Z,8.27
2022-09-28T02:48:11.235Z,7.50
2022-09-28T02:53:34.250Z,6.50
2022-09-28T02:58:50.879Z,6.17
2022-09-28T03:04:10.580Z,6.20
2022-09-28T03:09:23.315Z,6.40
2022-09-28T03:14:25.195Z,6.73
2022-09-28T03:19:33.779Z,6.50
2022-09-28T03:24:39.541Z,8.13
2022-09-28T03:29:42.705Z,8.70
2022-09-28T03:34:57.866Z,10.90
2022-09-28T03:40:05.115Z,7.50
2022-09-28T03:45:08.292Z,7.27
2022-09-28T03:50:12.247Z,9.03
2022-09-28T03:55:17.907Z,10.17
2022-09-28T04:00:19.880Z,7.33
2022-09-28T04:05:24.012Z,9.90
2022-09-28T04:10:26.243Z,9.80
2022-09-28T04:15:40.354Z,11.77
2022-09-28T04:20:46.199Z,10.97
2022-09-28T04:25:55.119Z,11.87
2022-09-28T04:30:57.310Z,12.33
2022-09-28T04:35:59.138Z,11.10
2022-09-28T04:41:01.092Z,12.00
2022-09-28T04:46:11.831Z,13.87
2022-09-28T04:51:20.934Z,11.23
2022-09-28T04:56:22.601Z,15.70
2022-09-28T05:01:26.672Z,14.30
2022-09-28T05:06:35.860Z,13.90
2022-09-28T05:11:42.856Z,12.77
2022-09-28T05:16:53.781Z,13.67
2022-09-28T05:22:04.106Z,12.87
2022-09-28T05:27:11.020Z,16.70
2022-09-28T05:32:18.031Z,14.83
2022-09-28T05:37:36.429Z,17.33
2022-09-28T05:42:41.639Z,17.53
2022-09-28T05:47:50.406Z,19.23
2022-09-28T05:53:05.720Z,17.97
2022-09-28T05:58:08.123Z,18.67
2022-09-28T06:03:13.708Z,19.50
2022-09-28T06:08:15.733Z,21.43
2022-09-28T06:13:21.734Z,18.83
2022-09-28T06:18:29.157Z,20.93
2022-09-28T06:23:49.636Z,20.40
2022-09-28T06:28:56.025Z,23.33
2022-09-28T06:34:01.812Z,19.83
2022-09-28T06:39:06.263Z,20.90
2022-09-28T06:44:12.446Z,24.47
2022-09-28T06:49:22.946Z,25.40
2022-09-28T06:54:50.476Z,24.53
2022-09-28T07:00:05.788Z,24.90
2022-09-28T07:05:09.536Z,27.77
2022-09-28T07:10:34.285Z,24.70
2022-09-28T07:15:43.340Z,27.03
2022-09-28T07:20:54.155Z,27.23
2022-09-28T07:25:58.218Z,26.73
2022-09-28T07:31:11.915Z,25.43
2022-09-28T07:36:35.270Z,25.00
2022-09-28T07:41:39.682Z,26.97
2022-09-28T07:46:44.282Z,25.43
2022-09-28T07:51:56.518Z,24.10
2022-09-28T07:57:04.030Z,23.97
2022-09-28T08:02:20.200Z,24.13
2022-09-28T08:07:26.648Z,21.30
2022-09-28T08:12:40.783Z,23.83
2022-09-28T08:17:59.097Z,21.50
2022-09-28T08:23:08.297Z,19.17
2022-09-28T08:28:15.994Z,15.17
2022-09-28T08:33:23.900Z,14.40
2022-09-28T08:38:46.414Z,11.43
2022-09-28T08:44:24.156Z,10.37
2022-09-28T08:49:47.453Z,10.97
2022-09-28T08:55:36.881Z,8.37
2022-09-28T09:00:47.328Z,7.67
2022-09-28T09:05:52.485Z,7.20
2022-09-28T09:11:32.036Z,7.20
2022-09-28T09:17:00.008Z,7.07
2022-09-28T09:22:40.060Z,5.57
2022-09-28T09:28:17.759Z,6.60
2022-09-28T09:33:28.321Z,5.83
2022-09-28T09:38:58.149Z,4.67
2022-09-28T09:44:44.877Z,4.40
2022-09-28T09:50:25.297Z,3.85
2022-09-28T09:55:45.736Z,3.80
2022-09-28T10:01:14.999Z,2.28
2022-09-28T10:06:55.818Z,2.10
2022-09-28T10:12:04.052Z,2.90
2022-09-28T10:17:06.418Z,2.33
2022-09-28T10:22:28.064Z,3.30
2022-09-28T10:27:40.673Z,2.75
2022-09-28T10:32:47.114Z,2.70
2022-09-28T10:37:59.330Z,2.38
2022-09-28T10:43:34.644Z,2.15
2022-09-28T10:49:05.041Z,2.60
2022-09-28T10:54:17.800Z,2.45
2022-09-28T10:59:30.820Z,2.08
2022-09-28T11:05:00.077Z,1.98
2022-09-28T11:10:09.474Z,1.73
2022-09-28T11:15:30.526Z,2.17
2022-09-28T11:20:38.882Z,1.30
2022-09-28T11:25:45.249Z,1.30
2022-09-28T11:30:52.108Z,0.90
2022-09-28T11:36:18.792Z,1.00
2022-09-28T11:41:42.258Z,1.17
2022-09-28T11:47:11.069Z,0.70
2022-09-28T11:52:29.221Z,1.23
2022-09-28T11:57:39.864Z,1.33
2022-09-28T12:02:49.825Z,1.45
2022-09-28T12:08:04.666Z,1.23
2022-09-28T12:13:31.505Z,1.50
2022-09-28T12:19:02.462Z,1.45
2022-09-28T12:24:16.480Z,1.30
2022-09-28T12:29:31.216Z,1.42
2022-09-28T12:34:47.561Z,0.95
2022-09-28T12:40:12.647Z,0.80
2022-09-28T12:45:53.099Z,1.25
2022-09-28T12:51:36.104Z,0.63
2022-09-28T12:57:06.021Z,1.15
2022-09-28T13:02:48.714Z,0.90
2022-09-28T13:08:04.131Z,0.80
2022-09-28T13:13:19.144Z,0.90
2022-09-28T13:18:37.464Z,1.00
2022-09-28T13:23:44.285Z,1.05
2022-09-28T13:28:51.453Z,1.00
2022-09-28T13:33:53.785Z,1.10
2022-09-28T13:39:00.828Z,1.42
2022-09-28T13:44:16.781Z,1.52
2022-09-28T13:49:25.806Z,1.30
2022-09-28T13:55:19.095Z,1.50
2022-09-28T14:00:41.065Z,1.35
2022-09-28T14:05:47.382Z,1.52
2022-09-28T14:11:25.316Z,1.63
2022-09-28T14:16:34.903Z,1.83
2022-09-28T14:21:56.440Z,2.50
2022-09-28T14:27:01.212Z,2.85
2022-09-28T14:32:10.725Z,2.00
2022-09-28T14:37:39.738Z,1.73
2022-09-28T14:43:24.484Z,2.00
2022-09-28T14:49:03.455Z,2.17
2022-09-28T14:54:06.579Z,2.20
2022-09-28T14:59:30.342Z,1.55
2022-09-28T15:04:43.432Z,1.40
2022-09-28T15:09:54.624Z,1.48
2022-09-28T15:15:02.524Z,4.82
2022-09-28T15:20:08.874Z,2.10
2022-09-28T15:25:16.455Z,1.83
2022-09-28T15:30:25.626Z,1.90
2022-09-28T15:35:30.084Z,2.00
2022-09-28T15:40:37.931Z,2.10
2022-09-28T15:45:44.198Z,2.25
2022-09-28T15:51:11.059Z,1.90
2022-09-28T15:56:15.547Z,1.70
2022-09-28T16:01:36.667Z,1.75
2022-09-28T16:06:41.147Z,1.90
2022-09-28T16:11:47.177Z,1.70
2022-09-28T16:16:57.410Z,2.28
2022-09-28T16:22:00.099Z,1.85
2022-09-28T16:27:42.815Z,1.85
2022-09-28T16:33:01.671Z,4.07
2022-09-28T16:38:12.672Z,2.38
2022-09-28T16:43:30.217Z,1.67
2022-09-28T16:48:37.081Z,1.60
2022-09-28T16:53:57.233Z,2.20
2022-09-28T16:59:13.955Z,2.03
2022-09-28T17:04:15.776Z,3.20
2022-09-28T17:09:20.023Z,13.10
2022-09-28T17:14:23.711Z,10.40
2022-09-28T17:19:30.974Z,8.37
2022-09-28T17:24:35.232Z,7.90
2022-09-28T17:29:36.983Z,6.83
2022-09-28T17:34:38.744Z,6.32
2022-09-28T17:39:40.541Z,5.82
2022-09-28T17:44:45.575Z,6.07
2022-09-28T17:49:48.585Z,10.33
2022-09-28T17:54:50.395Z,16.50
2022-09-28T17:59:54.543Z,13.45
2022-09-28T18:04:56.533Z,16.30
2022-09-28T18:09:59.430Z,24.80
2022-09-28T18:15:07.576Z,20.47
2022-09-28T18:20:12.765Z,18.47
2022-09-28T18:25:17.179Z,15.93
2022-09-28T18:30:21.347Z,13.60
2022-09-28T18:35:31.904Z,20.27
2022-09-28T18:40:37.997Z,17.27
2022-09-28T18:45:39.990Z,16.03
2022-09-28T18:57:47.542Z,16.53
2022-09-28T19:03:00.072Z,17.10
2022-09-28T19:08:12.012Z,16.40
2022-09-28T19:13:23.339Z,16.23
2022-09-28T19:18:35.176Z,16.37
2022-09-28T19:23:49.727Z,14.73
2022-09-28T19:28:56.389Z,23.80
2022-09-28T19:33:58.923Z,19.93
2022-09-28T19:39:04.322Z,18.07
2022-09-28T19:44:46.512Z,17.97
2022-09-28T19:51:02.209Z,18.83
2022-09-28T19:56:05.796Z,20.43
2022-09-28T20:01:15.484Z,18.00
2022-09-28T20:06:24.542Z,17.07
2022-09-28T20:11:26.432Z,15.90
2022-09-28T20:16:49.431Z,15.67
2022-09-28T20:21:58.635Z,16.33
2022-09-28T20:27:02.911Z,16.80
2022-09-28T20:32:04.776Z,20.13
2022-09-28T20:37:08.596Z,17.63
2022-09-28T20:42:10.331Z,16.40
2022-09-28T20:47:14.259Z,17.07
2022-09-28T20:52:19.366Z,17.67
2022-09-28T20:57:21.373Z,16.67
2022-09-28T21:02:25.445Z,15.13
2022-09-28T21:07:27.186Z,15.13
2022-09-28T21:12:29.499Z,15.77
2022-09-28T21:17:32.020Z,14.90
2022-09-28T21:22:36.239Z,15.80
2022-09-28T21:27:38.418Z,15.27
2022-09-28T21:32:41.195Z,15.13
2022-09-28T21:37:42.913Z,15.03
2022-09-28T21:42:53.145Z,13.73
2022-09-28T21:47:54.865Z,14.83
2022-09-28T21:52:57.054Z,14.70
2022-09-28T21:58:00.964Z,14.27
2022-09-28T22:03:06.564Z,17.30
2022-09-28T22:08:11.397Z,16.23
2022-09-28T22:13:13.079Z,16.43
2022-09-28T22:18:14.884Z,16.10
2022-09-28T22:23:21.818Z,14.50
2022-09-28T22:28:26.102Z,13.67
2022-09-28T22:33:29.034Z,13.70
2022-09-28T22:38:35.245Z,12.77
2022-09-28T22:43:37.914Z,11.80
2022-09-28T22:48:53.894Z,11.83
2022-09-28T22:53:56.730Z,10.17
2022-09-28T22:58:58.474Z,10.47
2022-09-28T23:04:02.554Z,11.37
2022-09-28T23:09:06.914Z,11.20
2022-09-28T23:14:13.128Z,10.93
2022-09-28T23:19:19.625Z,11.10
2022-09-28T23:24:22.528Z,11.33
2022-09-28T23:29:24.236Z,10.90
2022-09-28T23:34:30.844Z,10.43
2022-09-28T23:39:39.924Z,10.10
2022-09-28T23:44:43.812Z,10.93
2022-09-28T23:49:47.956Z,12.07
2022-09-28T23:54:51.668Z,11.20
2022-09-28T23:59:58.650Z,10.60
